Teddy Meyer — WDF9635 — position and weather

sailwx.info

Track history (hours):
 
Tides and Currents Weather Stations Pressure Air Temp Water Temp Dewpoint Dewpoint Depression Visibility Wind Speed Wind Dir Waves Ship Positions

Teddy Meyer

More information available from US FCC via Universal Licensing System and Coast Guard Vessel Documentation Center.

Last reported at 2014-May-04 13:31 UTC. Time now 2014-Jul-22 09:20 UTC.
Position N 31°09' W 091°37'.
Warning: this ship's position is months out of date.

; draft 3 m.

MMSI: 367507220.

Date/timePositionNaut miles runAvg speedWind from/ knotsBaromVisibWave heightAir tempDewpointWater temp
2014-May-04 13:31N 31°09' W 091°37'62 2.6
2014-May-03 13:33N 30°13' W 091°05'6 4.8
2014-May-03 12:23N 30°09' W 091°00'4 2.2
2014-May-03 10:30N 30°08' W 090°56'5 4.7
2014-May-03 09:33N 30°04' W 090°54'4 3.8
2014-May-03 08:32N 30°01' W 090°50'2 2.5
2014-May-03 07:33N 29°60' W 090°48'5 4.5
2014-May-03 06:32N 30°01' W 090°43'4 4.3
2014-May-03 05:33N 30°03' W 090°38'4 4.3
2014-May-03 04:33N 30°03' W 090°33'4 4.3
2014-May-03 03:33N 30°02' W 090°28'4 4.1
2014-May-03 02:33N 29°60' W 090°25'4 4.5
2014-May-03 01:34N 29°56' W 090°21'  
2014-Apr-27 08:32N 29°54' W 090°07'0 0.0
2014-Apr-27 05:04N 29°54' W 090°07'0 0.0
2014-Apr-27 04:16N 29°54' W 090°07'0 0.0
2014-Apr-26 11:19N 29°54' W 090°07'0 0.0
2014-Apr-26 10:23N 29°54' W 090°07'0 0.0
2014-Apr-26 08:07N 29°54' W 090°07'0 0.0
2014-Apr-26 07:31N 29°54' W 090°07'0 0.0
2014-Apr-26 06:11N 29°54' W 090°07'0 0.0
2014-Apr-26 05:33N 29°54' W 090°07'  
Track history (hours):
 
Tides and Currents Weather Stations Pressure Air Temp Water Temp Dewpoint Dewpoint Depression Visibility Wind Speed Wind Dir Waves Ship Positions

Teddy Meyer

More information available from US FCC via Universal Licensing System and Coast Guard Vessel Documentation Center.

Last reported at 2014-May-04 13:31 UTC. Time now 2014-Jul-22 09:20 UTC.
Position N 31°09' W 091°37'.
Warning: this ship's position is months out of date.

; draft 3 m.

MMSI: 367507220.

Date/timePositionNaut miles runAvg speedWind from/ knotsBaromVisibWave heightAir tempDewpointWater temp
2014-May-04 13:31N 31°09' W 091°37'62 2.6
2014-May-03 13:33N 30°13' W 091°05'6 4.8
2014-May-03 12:23N 30°09' W 091°00'4 2.2
2014-May-03 10:30N 30°08' W 090°56'5 4.7
2014-May-03 09:33N 30°04' W 090°54'4 3.8
2014-May-03 08:32N 30°01' W 090°50'2 2.5
2014-May-03 07:33N 29°60' W 090°48'5 4.5
2014-May-03 06:32N 30°01' W 090°43'4 4.3
2014-May-03 05:33N 30°03' W 090°38'4 4.3
2014-May-03 04:33N 30°03' W 090°33'4 4.3
2014-May-03 03:33N 30°02' W 090°28'4 4.1
2014-May-03 02:33N 29°60' W 090°25'4 4.5
2014-May-03 01:34N 29°56' W 090°21'  
2014-Apr-27 08:32N 29°54' W 090°07'0 0.0
2014-Apr-27 05:04N 29°54' W 090°07'0 0.0
2014-Apr-27 04:16N 29°54' W 090°07'0 0.0
2014-Apr-26 11:19N 29°54' W 090°07'0 0.0
2014-Apr-26 10:23N 29°54' W 090°07'0 0.0
2014-Apr-26 08:07N 29°54' W 090°07'0 0.0
2014-Apr-26 07:31N 29°54' W 090°07'0 0.0
2014-Apr-26 06:11N 29°54' W 090°07'0 0.0
2014-Apr-26 05:33N 29°54' W 090°07'  

Dump ship's entire track history